Time;durP1;ratioP1;P1;durP2;ratioP2;P2;SDS_P1;SDS_P2;PMS_P1;PMS_P2;Temp;Humidity;BMP_temperature;BMP_pressure;BME280_temperature;BME280_humidity;BME280_pressure;Samples;Min_cycle;Max_cycle;Signal;HPM_P1;HPM_P2
2021/10/25 00:02:04;;;;;;;18.50;9.93;;;;;;;;;;5072949;28;20043;-86
2021/10/25 00:04:30;;;;;;;19.55;10.13;;;;;;;;;;5072922;28;20499;-86
2021/10/25 00:06:55;;;;;;;18.10;10.55;;;;;;;;;;5072907;28;20028;-86
2021/10/25 00:09:21;;;;;;;22.83;11.13;;;;;;;;;;5072987;28;20029;-86
2021/10/25 00:11:46;;;;;;;21.67;11.13;;;;;;;;;;5074116;28;20377;-86
2021/10/25 00:14:12;;;;;;;18.63;10.25;;;;;;;;;;5072608;28;20038;-86
2021/10/25 00:16:38;;;;;;;21.13;11.85;;;;;;;;;;5072064;28;20025;-86
2021/10/25 00:19:04;;;;;;;22.17;11.40;;;;;;;;;;5090009;28;20028;-85
2021/10/25 00:21:29;;;;;;;24.35;11.90;;;;;;;;;;5085911;28;20022;-86
2021/10/25 00:23:55;;;;;;;19.02;10.18;;;;;;;;;;5097435;28;20024;-86
2021/10/25 00:26:20;;;;;;;19.45;11.52;;;;;;;;;;5076408;28;20028;-86
2021/10/25 00:28:45;;;;;;;17.42;10.60;;;;;;;;;;5072659;28;20031;-85
2021/10/25 00:31:11;;;;;;;16.48;9.52;;;;;;;;;;5089604;28;20027;-85
2021/10/25 00:33:36;;;;;;;20.48;9.77;;;;;;;;;;5104331;28;20035;-86
2021/10/25 00:36:02;;;;;;;19.05;10.93;;;;;;;;;;5091878;28;20118;-86
2021/10/25 00:38:27;;;;;;;16.40;10.43;;;;;;;;;;5077382;28;20034;-86
2021/10/25 00:40:53;;;;;;;22.10;10.27;;;;;;;;;;5072563;28;20021;-86
2021/10/25 00:43:19;;;;;;;19.48;10.50;;;;;;;;;;5072234;28;20070;-85
2021/10/25 00:45:44;;;;;;;16.67;10.32;;;;;;;;;;5072378;28;20029;-85
2021/10/25 00:48:10;;;;;;;18.35;10.27;;;;;;;;;;5072253;28;20032;-85
2021/10/25 00:50:35;;;;;;;18.75;9.27;;;;;;;;;;5073952;28;20486;-85
2021/10/25 00:53:01;;;;;;;14.50;9.45;;;;;;;;;;5072347;28;20025;-85
2021/10/25 00:55:26;;;;;;;26.70;10.32;;;;;;;;;;5074043;28;20040;-85
2021/10/25 00:57:52;;;;;;;18.92;10.25;;;;;;;;;;5074224;28;20047;-85
2021/10/25 01:00:17;;;;;;;18.58;9.60;;;;;;;;;;5072363;28;20029;-85
2021/10/25 01:02:43;;;;;;;14.85;9.48;;;;;;;;;;5074576;28;20036;-86
2021/10/25 01:05:09;;;;;;;22.13;10.15;;;;;;;;;;5072151;28;20051;-85
2021/10/25 01:07:36;;;;;;;17.90;9.77;;;;;;;;;;5072367;28;20442;-85
2021/10/25 01:10:04;;;;;;;18.38;10.25;;;;;;;;;;5072182;28;20024;-85
2021/10/25 01:12:30;;;;;;;18.13;9.93;;;;;;;;;;5072097;28;20016;-86
2021/10/25 01:14:56;;;;;;;20.17;9.77;;;;;;;;;;5073314;28;20016;-85
2021/10/25 01:17:21;;;;;;;19.20;10.00;;;;;;;;;;5072224;28;20032;-85
2021/10/25 01:19:52;;;;;;;19.33;9.50;;;;;;;;;;5073468;28;20031;-85
2021/10/25 01:22:22;;;;;;;21.10;9.43;;;;;;;;;;5072336;28;20025;-85
2021/10/25 01:24:50;;;;;;;16.00;9.70;;;;;;;;;;5072232;28;20055;-85
2021/10/25 01:27:16;;;;;;;19.63;10.27;;;;;;;;;;5074773;28;20105;-86
2021/10/25 01:29:41;;;;;;;16.90;9.85;;;;;;;;;;5073460;28;20037;-85
2021/10/25 01:32:06;;;;;;;24.50;11.63;;;;;;;;;;5073323;28;20399;-85
2021/10/25 01:34:32;;;;;;;24.55;9.82;;;;;;;;;;5073190;28;20479;-85
2021/10/25 01:36:57;;;;;;;18.48;9.82;;;;;;;;;;5073654;28;20033;-85
2021/10/25 01:39:22;;;;;;;20.48;10.73;;;;;;;;;;5072506;28;20111;-85
2021/10/25 01:41:48;;;;;;;23.35;11.48;;;;;;;;;;5071814;28;20027;-85
2021/10/25 01:44:13;;;;;;;21.10;9.68;;;;;;;;;;5072115;28;20031;-85
2021/10/25 01:46:41;;;;;;;19.40;10.48;;;;;;;;;;5071973;28;20024;-85
2021/10/25 01:49:07;;;;;;;21.65;11.07;;;;;;;;;;5075774;28;20041;-85
2021/10/25 01:51:32;;;;;;;19.88;10.90;;;;;;;;;;5073476;28;20031;-85
2021/10/25 01:53:59;;;;;;;24.45;10.27;;;;;;;;;;5072992;28;20028;-85
2021/10/25 01:56:24;;;;;;;22.13;10.75;;;;;;;;;;5073593;28;20036;-85
2021/10/25 01:58:50;;;;;;;22.45;10.73;;;;;;;;;;5090883;28;20025;-85
2021/10/25 02:01:17;;;;;;;22.73;10.77;;;;;;;;;;5097554;28;20055;-85
2021/10/25 02:03:42;;;;;;;21.25;9.82;;;;;;;;;;5078887;28;20021;-85
2021/10/25 02:06:07;;;;;;;17.65;10.70;;;;;;;;;;5077176;28;20024;-85
2021/10/25 02:08:33;;;;;;;25.20;10.85;;;;;;;;;;5075767;28;20017;-85
2021/10/25 02:10:58;;;;;;;44.80;14.07;;;;;;;;;;5075912;28;20086;-85
2021/10/25 02:13:23;;;;;;;23.80;10.77;;;;;;;;;;5076820;28;20024;-85
2021/10/25 02:15:49;;;;;;;21.42;10.98;;;;;;;;;;5075298;28;20096;-85
2021/10/25 02:18:15;;;;;;;17.27;9.95;;;;;;;;;;5075160;28;20025;-85
2021/10/25 02:20:42;;;;;;;17.45;9.93;;;;;;;;;;5076580;28;20024;-85
2021/10/25 02:23:09;;;;;;;16.65;9.80;;;;;;;;;;5076387;28;20532;-86
2021/10/25 02:25:35;;;;;;;17.92;10.98;;;;;;;;;;5075177;28;20035;-85
2021/10/25 02:28:02;;;;;;;21.00;11.40;;;;;;;;;;5075054;28;20028;-85
2021/10/25 02:30:29;;;;;;;21.75;10.82;;;;;;;;;;5075057;28;20024;-85
2021/10/25 02:32:55;;;;;;;24.13;11.50;;;;;;;;;;5082793;28;20059;-86
2021/10/25 02:35:20;;;;;;;18.35;10.98;;;;;;;;;;5078819;28;20503;-85
2021/10/25 02:37:45;;;;;;;20.67;11.32;;;;;;;;;;5077591;28;20024;-85
2021/10/25 02:40:11;;;;;;;19.80;10.27;;;;;;;;;;5090323;28;20029;-85
2021/10/25 02:42:37;;;;;;;20.05;11.00;;;;;;;;;;5076950;28;20032;-85
2021/10/25 02:45:03;;;;;;;18.95;10.68;;;;;;;;;;5076056;28;20023;-85
2021/10/25 02:47:29;;;;;;;26.05;11.50;;;;;;;;;;5074977;28;20510;-86
2021/10/25 02:49:56;;;;;;;20.00;11.32;;;;;;;;;;5088804;28;20028;-86
2021/10/25 02:52:22;;;;;;;23.90;11.10;;;;;;;;;;5078303;28;20112;-85
2021/10/25 02:54:48;;;;;;;19.85;11.90;;;;;;;;;;5075853;28;20116;-85
2021/10/25 02:57:14;;;;;;;20.77;10.73;;;;;;;;;;5076412;28;20024;-85
2021/10/25 02:59:39;;;;;;;18.27;10.90;;;;;;;;;;5074912;28;20093;-85
2021/10/25 03:02:05;;;;;;;21.73;11.23;;;;;;;;;;5075086;28;20531;-85
2021/10/25 03:04:30;;;;;;;26.88;11.85;;;;;;;;;;5074649;28;20048;-85
2021/10/25 03:06:56;;;;;;;23.02;10.45;;;;;;;;;;5075288;28;20021;-85
2021/10/25 03:09:21;;;;;;;20.20;10.75;;;;;;;;;;5074483;28;20029;-85
2021/10/25 03:11:46;;;;;;;21.85;10.93;;;;;;;;;;5075904;28;20089;-85
2021/10/25 03:14:12;;;;;;;21.98;11.73;;;;;;;;;;5074960;28;20033;-85
2021/10/25 03:16:37;;;;;;;20.60;11.18;;;;;;;;;;5075715;28;20551;-85
2021/10/25 03:19:03;;;;;;;30.52;11.70;;;;;;;;;;5074220;28;20032;-85
2021/10/25 03:21:28;;;;;;;23.65;10.90;;;;;;;;;;5075352;28;20107;-85
2021/10/25 03:23:54;;;;;;;23.13;11.18;;;;;;;;;;5073740;28;20086;-85
2021/10/25 03:26:20;;;;;;;19.88;11.02;;;;;;;;;;5073863;28;20048;-85
2021/10/25 03:28:45;;;;;;;21.60;12.20;;;;;;;;;;5075307;28;20078;-85
2021/10/25 03:31:11;;;;;;;24.35;11.63;;;;;;;;;;5074011;28;20500;-85
2021/10/25 03:33:38;;;;;;;22.42;12.00;;;;;;;;;;5072173;28;20388;-86
2021/10/25 03:36:06;;;;;;;27.92;12.73;;;;;;;;;;5089716;28;20040;-85
2021/10/25 03:38:33;;;;;;;19.58;12.48;;;;;;;;;;5096215;28;20096;-85
2021/10/25 03:41:00;;;;;;;24.30;12.48;;;;;;;;;;5074757;28;20055;-85
2021/10/25 03:43:30;;;;;;;23.25;12.57;;;;;;;;;;5073780;28;20024;-85
2021/10/25 03:48:44;;;;;;;29.77;13.80;;;;;;;;;;5075747;28;20028;-85
2021/10/25 03:51:13;;;;;;;28.30;13.02;;;;;;;;;;5074254;28;20421;-85
2021/10/25 03:53:51;;;;;;;23.58;12.18;;;;;;;;;;5073218;28;20063;-85
2021/10/25 03:57:13;;;;;;;23.92;12.32;;;;;;;;;;5075126;28;20131;-85
2021/10/25 03:59:19;;;;;;;24.67;11.65;;;;;;;;;;5065989;28;20070;-86
2021/10/25 04:13:20;;;;;;;26.08;12.05;;;;;;;;;;5095047;28;20039;-85
2021/10/25 04:26:57;;;;;;;24.15;12.23;;;;;;;;;;5074756;28;20070;-85
2021/10/25 04:29:26;;;;;;;24.35;12.77;;;;;;;;;;5074137;28;20434;-86
2021/10/25 04:31:52;;;;;;;34.10;14.23;;;;;;;;;;5072827;28;20024;-85
2021/10/25 04:34:17;;;;;;;27.42;13.50;;;;;;;;;;5074998;28;20078;-85
2021/10/25 04:36:43;;;;;;;30.95;12.95;;;;;;;;;;5073813;28;20447;-85
2021/10/25 04:39:12;;;;;;;31.13;13.52;;;;;;;;;;5073897;28;20078;-85
2021/10/25 04:41:39;;;;;;;25.50;13.43;;;;;;;;;;5075012;28;20036;-86
2021/10/25 04:44:05;;;;;;;32.65;14.77;;;;;;;;;;5076437;28;20467;-86
2021/10/25 04:46:30;;;;;;;27.27;13.63;;;;;;;;;;5075086;28;20024;-85
2021/10/25 04:48:55;;;;;;;34.58;14.63;;;;;;;;;;5079103;28;20024;-86
2021/10/25 04:51:21;;;;;;;28.95;15.35;;;;;;;;;;5094019;28;20020;-86
2021/10/25 04:53:46;;;;;;;27.58;14.02;;;;;;;;;;5096470;28;20024;-85
2021/10/25 04:56:11;;;;;;;45.03;15.05;;;;;;;;;;5093470;28;20081;-85
2021/10/25 04:58:37;;;;;;;28.67;16.02;;;;;;;;;;5094226;28;20039;-85
2021/10/25 05:01:02;;;;;;;37.08;14.63;;;;;;;;;;5093976;28;20024;-85
2021/10/25 05:03:28;;;;;;;27.85;13.90;;;;;;;;;;5092884;28;20043;-86
2021/10/25 05:05:53;;;;;;;32.03;16.17;;;;;;;;;;5080062;28;20032;-85
2021/10/25 05:08:20;;;;;;;31.23;16.67;;;;;;;;;;5072447;28;20112;-85
2021/10/25 05:10:46;;;;;;;37.72;19.08;;;;;;;;;;5074333;28;20023;-85
2021/10/25 05:13:11;;;;;;;28.95;17.67;;;;;;;;;;5076921;28;20029;-85
2021/10/25 05:15:37;;;;;;;26.10;14.85;;;;;;;;;;5077493;28;20066;-85
2021/10/25 05:18:04;;;;;;;41.78;16.17;;;;;;;;;;5073823;28;20033;-85
2021/10/25 05:20:29;;;;;;;27.95;13.45;;;;;;;;;;5074356;28;20459;-85
2021/10/25 05:22:54;;;;;;;30.20;13.88;;;;;;;;;;5082998;28;20020;-85
2021/10/25 05:25:20;;;;;;;34.47;13.75;;;;;;;;;;5074755;28;20115;-85
2021/10/25 05:27:45;;;;;;;31.27;12.73;;;;;;;;;;5074110;28;20029;-85
2021/10/25 05:30:10;;;;;;;28.55;14.10;;;;;;;;;;5076886;28;20020;-85
2021/10/25 05:32:36;;;;;;;26.85;12.77;;;;;;;;;;5079164;28;20044;-86
2021/10/25 05:35:01;;;;;;;25.13;13.75;;;;;;;;;;5079519;28;20035;-86
2021/10/25 05:37:27;;;;;;;21.38;12.88;;;;;;;;;;5079379;28;20020;-86
2021/10/25 05:39:55;;;;;;;27.77;14.30;;;;;;;;;;5099837;28;20086;-86
2021/10/25 05:42:21;;;;;;;34.00;13.02;;;;;;;;;;5099260;28;20055;-86
2021/10/25 05:44:47;;;;;;;27.88;12.38;;;;;;;;;;5081623;28;20036;-85
2021/10/25 05:47:12;;;;;;;24.35;13.48;;;;;;;;;;5078229;28;20118;-85
2021/10/25 05:49:38;;;;;;;28.63;13.05;;;;;;;;;;5095633;28;20107;-85
2021/10/25 05:52:04;;;;;;;27.52;12.85;;;;;;;;;;5100485;28;20023;-86
2021/10/25 05:54:30;;;;;;;27.27;12.05;;;;;;;;;;5097657;28;20506;-85
2021/10/25 05:56:55;;;;;;;21.98;12.68;;;;;;;;;;5096048;28;20024;-85
2021/10/25 05:59:24;;;;;;;23.77;11.88;;;;;;;;;;5095955;28;20022;-85
2021/10/25 06:04:34;;;;;;;28.85;12.57;;;;;;;;;;5098145;28;20077;-85
2021/10/25 06:06:59;;;;;;;23.98;13.07;;;;;;;;;;5097275;28;20020;-85
2021/10/25 06:09:27;;;;;;;26.13;11.60;;;;;;;;;;5097621;28;20059;-85
2021/10/25 06:11:52;;;;;;;28.05;13.70;;;;;;;;;;5095667;28;20024;-86
2021/10/25 06:14:26;;;;;;;24.23;13.70;;;;;;;;;;5096933;28;20032;-85
2021/10/25 06:16:57;;;;;;;29.48;13.38;;;;;;;;;;5096365;28;20028;-85
2021/10/25 06:19:23;;;;;;;29.73;13.05;;;;;;;;;;5097955;28;20020;-85
2021/10/25 06:21:48;;;;;;;24.75;13.02;;;;;;;;;;5097096;28;20027;-85
2021/10/25 06:24:13;;;;;;;21.20;11.70;;;;;;;;;;5096507;28;20020;-85
2021/10/25 06:26:39;;;;;;;28.40;13.20;;;;;;;;;;5095968;28;20034;-85
2021/10/25 06:29:04;;;;;;;22.90;13.48;;;;;;;;;;5095677;28;20024;-86
2021/10/25 06:31:31;;;;;;;26.27;14.48;;;;;;;;;;5095564;28;20035;-85
2021/10/25 06:34:00;;;;;;;32.50;13.90;;;;;;;;;;5097171;28;20402;-85
2021/10/25 06:36:25;;;;;;;25.70;13.07;;;;;;;;;;5096797;28;20078;-86
2021/10/25 06:41:18;;;;;;;29.50;14.23;;;;;;;;;;5096505;28;20020;-85
2021/10/25 06:43:44;;;;;;;35.20;14.38;;;;;;;;;;5095007;28;20028;-85
2021/10/25 06:46:10;;;;;;;31.73;12.73;;;;;;;;;;5095411;28;20031;-85
2021/10/25 06:48:35;;;;;;;25.38;13.27;;;;;;;;;;5099249;28;20020;-85
2021/10/25 06:51:01;;;;;;;22.30;12.82;;;;;;;;;;5105602;28;20020;-85
2021/10/25 06:53:26;;;;;;;22.13;12.35;;;;;;;;;;5099924;28;20518;-85
2021/10/25 06:55:51;;;;;;;25.23;13.13;;;;;;;;;;5096651;28;20016;-85
2021/10/25 06:58:19;;;;;;;27.63;12.55;;;;;;;;;;5094883;28;20034;-85
2021/10/25 07:00:45;;;;;;;23.42;12.63;;;;;;;;;;5096411;28;20020;-85
2021/10/25 07:03:11;;;;;;;25.45;12.63;;;;;;;;;;5094834;28;20119;-86
2021/10/25 07:05:37;;;;;;;24.02;13.35;;;;;;;;;;5094766;28;20502;-85
2021/10/25 07:08:03;;;;;;;24.02;11.85;;;;;;;;;;5095010;28;20052;-85
2021/10/25 07:10:29;;;;;;;28.40;12.55;;;;;;;;;;5095097;28;20024;-86
2021/10/25 07:12:57;;;;;;;24.83;11.88;;;;;;;;;;5094352;28;20039;-86
2021/10/25 07:15:23;;;;;;;25.35;13.07;;;;;;;;;;5096066;28;20016;-86
2021/10/25 07:18:11;;;;;;;39.08;14.48;;;;;;;;;;5095855;28;20031;-86
2021/10/25 08:01:52;;;;;;;23.05;12.48;;;;;;;;;;5093745;28;20063;-86
2021/10/25 08:08:13;;;;;;;28.67;12.90;;;;;;;;;;5075590;28;20054;-85
2021/10/25 08:09:59;;;;;;;22.33;11.30;;;;;;;;;;5065170;28;20029;-86
2021/10/25 08:12:27;;;;;;;20.83;11.10;;;;;;;;;;5075131;28;20073;-85
2021/10/25 08:14:57;;;;;;;18.58;10.55;;;;;;;;;;5074700;28;20032;-86
2021/10/25 08:17:25;;;;;;;23.45;10.70;;;;;;;;;;5087892;28;20020;-84
2021/10/25 08:19:51;;;;;;;19.23;10.65;;;;;;;;;;5094797;28;20033;-86
2021/10/25 08:22:17;;;;;;;22.15;10.90;;;;;;;;;;5078826;28;20115;-86
2021/10/25 08:24:49;;;;;;;16.30;10.13;;;;;;;;;;5073384;28;20487;-85
2021/10/25 08:27:17;;;;;;;19.10;10.23;;;;;;;;;;5085043;28;20011;-85
2021/10/25 08:29:46;;;;;;;19.00;10.10;;;;;;;;;;5086104;28;20066;-85
2021/10/25 08:40:30;;;;;;;30.58;9.95;;;;;;;;;;5075001;28;20098;-85
2021/10/25 08:42:56;;;;;;;20.90;10.10;;;;;;;;;;5073418;28;20020;-85
2021/10/25 08:45:29;;;;;;;18.23;9.32;;;;;;;;;;5074294;28;20107;-85
2021/10/25 08:47:55;;;;;;;17.60;9.52;;;;;;;;;;5076682;28;20020;-85
2021/10/25 08:50:23;;;;;;;20.50;9.60;;;;;;;;;;5093140;28;20051;-85
2021/10/25 08:52:50;;;;;;;18.77;9.55;;;;;;;;;;5093364;28;20107;-85
2021/10/25 08:55:17;;;;;;;24.92;9.77;;;;;;;;;;5092768;28;20016;-85
2021/10/25 08:57:44;;;;;;;18.38;9.57;;;;;;;;;;5092902;28;20016;-86
2021/10/25 09:00:15;;;;;;;22.95;9.65;;;;;;;;;;5093929;28;20050;-86
2021/10/25 09:02:43;;;;;;;19.40;8.98;;;;;;;;;;5093187;28;20069;-85
2021/10/25 09:05:12;;;;;;;15.05;8.38;;;;;;;;;;5093971;28;20114;-85
2021/10/25 09:08:06;;;;;;;20.85;8.93;;;;;;;;;;5094367;28;20035;-86
2021/10/25 09:10:39;;;;;;;32.60;9.85;;;;;;;;;;5094674;28;20024;-85
2021/10/25 09:13:08;;;;;;;22.10;9.13;;;;;;;;;;5094095;28;20036;-86
2021/10/25 09:15:39;;;;;;;15.77;8.35;;;;;;;;;;5093548;28;20040;-86
2021/10/25 09:18:11;;;;;;;16.25;7.80;;;;;;;;;;5092878;28;20539;-86
2021/10/25 09:20:47;;;;;;;19.77;9.25;;;;;;;;;;5093138;28;20051;-86
2021/10/25 09:23:14;;;;;;;20.88;8.77;;;;;;;;;;5089702;28;20111;-86
2021/10/25 09:25:40;;;;;;;19.52;8.43;;;;;;;;;;5075838;28;20029;-86
2021/10/25 09:28:13;;;;;;;15.30;8.90;;;;;;;;;;5073094;28;20046;-86
2021/10/25 09:30:41;;;;;;;20.83;8.70;;;;;;;;;;5074025;28;20036;-86
2021/10/25 09:33:08;;;;;;;15.85;7.63;;;;;;;;;;5072738;28;20044;-85
2021/10/25 09:35:43;;;;;;;18.83;7.43;;;;;;;;;;5072434;28;20035;-86
2021/10/25 09:38:25;;;;;;;16.67;7.78;;;;;;;;;;5072966;28;20450;-86
2021/10/25 09:50:54;;;;;;;11.07;7.20;;;;;;;;;;5073808;28;20031;-86
2021/10/25 09:53:37;;;;;;;15.10;7.28;;;;;;;;;;5072446;28;20024;-86
2021/10/25 09:56:05;;;;;;;13.63;6.57;;;;;;;;;;5073280;28;20115;-86
2021/10/25 09:58:48;;;;;;;16.80;6.55;;;;;;;;;;5072523;28;20081;-86
2021/10/25 10:01:15;;;;;;;10.68;6.63;;;;;;;;;;5079183;28;20047;-86
2021/10/25 10:03:43;;;;;;;14.93;6.32;;;;;;;;;;5082316;28;20033;-86
2021/10/25 10:06:08;;;;;;;15.13;6.38;;;;;;;;;;5074903;28;20028;-87
2021/10/25 10:08:34;;;;;;;10.55;6.18;;;;;;;;;;5072435;28;20021;-86
2021/10/25 10:11:00;;;;;;;13.43;6.38;;;;;;;;;;5073707;28;20067;-86
2021/10/25 10:13:27;;;;;;;11.73;5.93;;;;;;;;;;5074034;28;20029;-86
2021/10/25 10:15:55;;;;;;;23.70;7.13;;;;;;;;;;5076239;28;20445;-86
2021/10/25 10:18:23;;;;;;;14.93;6.70;;;;;;;;;;5079048;28;20490;-86
2021/10/25 10:20:53;;;;;;;26.98;7.20;;;;;;;;;;5077502;28;20395;-86
2021/10/25 10:23:20;;;;;;;12.80;6.68;;;;;;;;;;5076353;28;20025;-86
2021/10/25 10:26:00;;;;;;;15.18;6.40;;;;;;;;;;5077229;28;20020;-86
2021/10/25 10:28:40;;;;;;;11.35;6.65;;;;;;;;;;5076482;28;20028;-85
2021/10/25 10:31:14;;;;;;;16.50;6.60;;;;;;;;;;5076013;28;20032;-86
2021/10/25 10:33:49;;;;;;;13.73;6.57;;;;;;;;;;5076043;28;20023;-86
2021/10/25 10:36:14;;;;;;;13.40;6.70;;;;;;;;;;5076055;28;20070;-86
2021/10/25 10:38:49;;;;;;;15.38;7.10;;;;;;;;;;5075851;28;20024;-85
2021/10/25 10:41:18;;;;;;;19.17;6.60;;;;;;;;;;5077168;28;20039;-86
2021/10/25 10:44:08;;;;;;;15.25;6.03;;;;;;;;;;5078200;28;20451;-85
2021/10/25 10:46:50;;;;;;;10.88;5.45;;;;;;;;;;5077046;28;20415;-86
2021/10/25 10:49:19;;;;;;;10.93;5.80;;;;;;;;;;5075227;28;20372;-86
2021/10/25 10:51:45;;;;;;;18.92;6.15;;;;;;;;;;5091463;28;20013;-89
2021/10/25 10:54:21;;;;;;;9.93;6.05;;;;;;;;;;5099757;28;20057;-86
2021/10/25 10:57:04;;;;;;;11.10;5.15;;;;;;;;;;5085044;28;20036;-86
2021/10/25 10:59:33;;;;;;;;;;;;;;;;;;5077767;28;20487;-86
2021/10/25 11:01:59;;;;;;;18.73;5.72;;;;;;;;;;5075700;28;20378;-87
2021/10/25 11:04:33;;;;;;;13.40;5.40;;;;;;;;;;5089548;28;20032;-87
2021/10/25 11:07:02;;;;;;;12.73;5.72;;;;;;;;;;5075248;28;20035;-88
2021/10/25 11:09:30;;;;;;;11.75;5.18;;;;;;;;;;5075296;28;20024;-86
2021/10/25 11:12:01;;;;;;;16.38;6.45;;;;;;;;;;5075876;28;20020;-87
2021/10/25 11:14:29;;;;;;;9.70;5.13;;;;;;;;;;5085143;28;20032;-86
2021/10/25 11:17:16;;;;;;;11.02;4.93;;;;;;;;;;5087545;28;20020;-86
2021/10/25 11:19:50;;;;;;;11.45;5.60;;;;;;;;;;5091040;28;20028;-86
2021/10/25 11:22:32;;;;;;;12.75;5.43;;;;;;;;;;5089119;28;20028;-87
2021/10/25 11:24:58;;;;;;;20.48;6.18;;;;;;;;;;5078942;28;20050;-87
2021/10/25 11:27:31;;;;;;;12.00;5.10;;;;;;;;;;5096634;28;20032;-86
2021/10/25 11:30:26;;;;;;;12.15;5.28;;;;;;;;;;5095012;28;20028;-86
2021/10/25 11:32:51;;;;;;;11.48;5.03;;;;;;;;;;5078577;28;20047;-86
2021/10/25 11:35:18;;;;;;;19.23;6.35;;;;;;;;;;5094966;28;20024;-86
2021/10/25 11:37:49;;;;;;;12.02;5.53;;;;;;;;;;5104230;28;20030;-86
2021/10/25 11:40:18;;;;;;;13.95;5.20;;;;;;;;;;5106023;28;20022;-88
2021/10/25 11:42:45;;;;;;;9.43;5.13;;;;;;;;;;5096656;28;20039;-87
2021/10/25 11:45:17;;;;;;;15.77;5.85;;;;;;;;;;5096776;28;20538;-86
2021/10/25 11:47:50;;;;;;;13.15;6.10;;;;;;;;;;5094535;28;20483;-86
2021/10/25 11:50:16;;;;;;;10.80;5.40;;;;;;;;;;5097542;28;20053;-86
2021/10/25 11:52:48;;;;;;;12.20;5.60;;;;;;;;;;5094857;28;20024;-86
2021/10/25 11:55:16;;;;;;;17.70;5.82;;;;;;;;;;5094422;28;20032;-86
2021/10/25 11:57:50;;;;;;;13.30;5.63;;;;;;;;;;5095919;28;20103;-87
2021/10/25 12:00:19;;;;;;;30.17;6.55;;;;;;;;;;5096033;28;20024;-86
2021/10/25 12:02:46;;;;;;;15.10;5.78;;;;;;;;;;5093978;28;20024;-86
2021/10/25 12:05:17;;;;;;;14.48;6.20;;;;;;;;;;5094186;28;20475;-86
2021/10/25 12:07:51;;;;;;;11.55;5.50;;;;;;;;;;5095763;28;20032;-86
2021/10/25 12:10:18;;;;;;;13.75;6.18;;;;;;;;;;5095596;28;20024;-84
2021/10/25 12:12:44;;;;;;;16.13;5.43;;;;;;;;;;5094812;28;20043;-86
2021/10/25 12:15:17;;;;;;;11.95;5.45;;;;;;;;;;5095770;28;20040;-85
2021/10/25 12:17:43;;;;;;;13.73;5.88;;;;;;;;;;5094791;28;20391;-87
2021/10/25 12:20:11;;;;;;;14.27;5.00;;;;;;;;;;5094398;28;20046;-85
2021/10/25 12:22:38;;;;;;;9.40;5.25;;;;;;;;;;5093811;28;20024;-85
2021/10/25 12:25:04;;;;;;;12.65;5.13;;;;;;;;;;5093583;28;20457;-85
2021/10/25 12:27:41;;;;;;;8.52;4.53;;;;;;;;;;5094965;28;20051;-85
2021/10/25 12:30:12;;;;;;;9.45;4.93;;;;;;;;;;5095533;28;20031;-86
2021/10/25 12:32:50;;;;;;;16.17;4.75;;;;;;;;;;5095303;28;20028;-85
2021/10/25 12:35:16;;;;;;;10.88;4.90;;;;;;;;;;5094488;28;20020;-85
2021/10/25 12:37:41;;;;;;;8.43;4.68;;;;;;;;;;5094706;28;20039;-84
2021/10/25 12:40:17;;;;;;;13.13;5.65;;;;;;;;;;5093054;28;20028;-84
2021/10/25 12:42:43;;;;;;;16.23;4.80;;;;;;;;;;5093197;28;20084;-84
2021/10/25 12:45:20;;;;;;;11.45;4.85;;;;;;;;;;5093429;28;20016;-84
2021/10/25 12:47:50;;;;;;;11.63;4.22;;;;;;;;;;5094360;28;20070;-84
2021/10/25 12:50:17;;;;;;;8.38;4.63;;;;;;;;;;5095251;28;20027;-83
2021/10/25 12:52:44;;;;;;;12.65;5.10;;;;;;;;;;5094844;28;20024;-85
2021/10/25 12:55:10;;;;;;;10.82;4.22;;;;;;;;;;5092867;28;20020;-85
2021/10/25 12:57:40;;;;;;;8.55;4.63;;;;;;;;;;5093435;28;20031;-85
2021/10/25 13:00:14;;;;;;;11.48;4.50;;;;;;;;;;5092908;28;20047;-85
2021/10/25 13:02:52;;;;;;;10.48;4.18;;;;;;;;;;5093347;28;20107;-85
2021/10/25 13:05:25;;;;;;;11.73;4.03;;;;;;;;;;5095448;28;20048;-85
2021/10/25 13:07:55;;;;;;;10.38;4.20;;;;;;;;;;5095284;28;20031;-85
2021/10/25 13:10:24;;;;;;;17.42;5.10;;;;;;;;;;5094920;28;20034;-85
2021/10/25 13:12:50;;;;;;;14.35;4.93;;;;;;;;;;5108300;28;20027;-85
2021/10/25 13:15:16;;;;;;;12.02;4.55;;;;;;;;;;5095339;28;20123;-85
2021/10/25 13:17:42;;;;;;;13.52;5.32;;;;;;;;;;5097091;28;20020;-85
2021/10/25 13:20:09;;;;;;;9.85;5.20;;;;;;;;;;5100776;28;20051;-85
2021/10/25 13:22:34;;;;;;;10.55;5.18;;;;;;;;;;5096308;28;20414;-85
2021/10/25 13:24:59;;;;;;;6.90;4.88;;;;;;;;;;5093220;28;20039;-85
2021/10/25 13:27:25;;;;;;;15.45;4.55;;;;;;;;;;5079130;28;20035;-85
2021/10/25 13:29:50;;;;;;;10.00;4.55;;;;;;;;;;5075646;28;20116;-85
2021/10/25 13:32:17;;;;;;;9.95;3.85;;;;;;;;;;5076496;28;20025;-85
2021/10/25 13:34:43;;;;;;;12.48;5.13;;;;;;;;;;5072754;28;20028;-85
2021/10/25 13:37:09;;;;;;;17.95;4.82;;;;;;;;;;5074011;28;20025;-85
2021/10/25 13:39:34;;;;;;;13.20;4.72;;;;;;;;;;5074335;28;20166;-85
2021/10/25 13:42:00;;;;;;;11.75;4.35;;;;;;;;;;5073271;28;20037;-85
2021/10/25 13:44:25;;;;;;;12.95;4.97;;;;;;;;;;5073004;28;20041;-85
2021/10/25 13:46:50;;;;;;;12.18;4.20;;;;;;;;;;5073278;28;20029;-85
2021/10/25 13:49:16;;;;;;;13.05;4.88;;;;;;;;;;5074095;28;20027;-85
2021/10/25 13:51:41;;;;;;;18.92;4.22;;;;;;;;;;5077077;28;20025;-86
2021/10/25 13:54:07;;;;;;;11.40;5.32;;;;;;;;;;5098426;28;20056;-85
2021/10/25 13:56:35;;;;;;;11.18;4.60;;;;;;;;;;5096557;28;20024;-85
2021/10/25 13:59:00;;;;;;;11.80;5.43;;;;;;;;;;5098042;28;20030;-85
2021/10/25 14:01:26;;;;;;;14.88;4.80;;;;;;;;;;5097625;28;20473;-85
2021/10/25 14:03:52;;;;;;;8.50;4.93;;;;;;;;;;5097501;28;20047;-85
2021/10/25 14:06:26;;;;;;;17.63;5.00;;;;;;;;;;5098369;28;20069;-86
2021/10/25 14:08:53;;;;;;;13.05;4.95;;;;;;;;;;5098826;28;20042;-87
2021/10/25 14:11:19;;;;;;;12.88;4.85;;;;;;;;;;5098595;28;20107;-86
2021/10/25 14:18:45;;;;;;;15.63;5.03;;;;;;;;;;5100392;28;20027;-86
2021/10/25 14:21:15;;;;;;;13.55;5.40;;;;;;;;;;5096502;28;20032;-87
2021/10/25 14:23:42;;;;;;;17.75;5.70;;;;;;;;;;5098357;28;20055;-86
2021/10/25 14:26:07;;;;;;;11.35;5.00;;;;;;;;;;5077258;28;20020;-87
2021/10/25 14:28:33;;;;;;;13.18;5.00;;;;;;;;;;5079158;28;20028;-87
2021/10/25 14:30:59;;;;;;;13.02;5.82;;;;;;;;;;5080415;28;20020;-86
2021/10/25 14:33:26;;;;;;;11.82;5.03;;;;;;;;;;5080370;28;20028;-86
2021/10/25 14:35:53;;;;;;;13.73;5.35;;;;;;;;;;5076815;28;20025;-86
2021/10/25 14:38:34;;;;;;;14.27;5.07;;;;;;;;;;5075689;28;20029;-86
2021/10/25 14:41:24;;;;;;;12.68;5.70;;;;;;;;;;5076861;28;20472;-86
2021/10/25 14:43:55;;;;;;;11.95;4.97;;;;;;;;;;5078249;28;20037;-87
2021/10/25 14:55:04;;;;;;;10.25;4.38;;;;;;;;;;5080243;28;20082;-86
2021/10/25 14:57:24;;;;;;;10.07;4.53;;;;;;;;;;5081845;28;20037;-87
2021/10/25 14:59:53;;;;;;;9.10;3.75;;;;;;;;;;5079510;28;20380;-86
2021/10/25 15:02:19;;;;;;;14.13;5.00;;;;;;;;;;5075228;28;20480;-85
2021/10/25 15:04:46;;;;;;;12.60;3.90;;;;;;;;;;5076615;28;20035;-87
2021/10/25 15:07:25;;;;;;;15.60;4.80;;;;;;;;;;5077401;28;20021;-86
2021/10/25 15:09:54;;;;;;;17.30;4.60;;;;;;;;;;5076196;28;20027;-86
2021/10/25 15:12:22;;;;;;;14.68;5.47;;;;;;;;;;5079100;28;20062;-86
2021/10/25 15:14:58;;;;;;;12.00;5.75;;;;;;;;;;5078039;28;20033;-86
2021/10/25 15:17:26;;;;;;;16.23;5.68;;;;;;;;;;5076485;28;20111;-85
2021/10/25 15:20:13;;;;;;;;;;;;;;;;;;;;;
2021/10/25 15:22:40;;;;;;;14.00;4.60;;;;;;;;;;5079130;28;20103;-86
2021/10/25 15:25:11;;;;;;;13.65;5.32;;;;;;;;;;5079424;28;20023;-86
2021/10/25 15:27:40;;;;;;;13.90;4.75;;;;;;;;;;5090639;28;20032;-85
2021/10/25 15:30:10;;;;;;;12.25;4.47;;;;;;;;;;5095654;28;20035;-86
2021/10/25 15:32:36;;;;;;;9.95;4.90;;;;;;;;;;5094837;28;20028;-86
2021/10/25 15:35:04;;;;;;;11.80;4.90;;;;;;;;;;5096154;28;20475;-86
2021/10/25 15:37:39;;;;;;;12.15;5.35;;;;;;;;;;5092828;28;20035;-86
2021/10/25 15:40:06;;;;;;;11.45;5.72;;;;;;;;;;5074437;28;20028;-86
2021/10/25 15:42:34;;;;;;;16.63;5.38;;;;;;;;;;5086746;28;20108;-86
2021/10/25 15:45:00;;;;;;;10.73;4.95;;;;;;;;;;5074648;28;20497;-86
2021/10/25 15:47:30;;;;;;;14.85;6.25;;;;;;;;;;5076172;28;20024;-86
2021/10/25 15:49:58;;;;;;;17.33;5.80;;;;;;;;;;5076052;28;20024;-86
2021/10/25 15:52:25;;;;;;;14.00;5.57;;;;;;;;;;5077471;28;20503;-87
2021/10/25 15:54:57;;;;;;;12.48;6.10;;;;;;;;;;5074048;28;20039;-86
2021/10/25 15:57:26;;;;;;;14.87;6.13;;;;;;;;;;5075622;28;20031;-86
2021/10/25 15:59:54;;;;;;;15.25;6.00;;;;;;;;;;5076080;28;20038;-87
2021/10/25 16:02:21;;;;;;;10.80;5.93;;;;;;;;;;5091393;28;20030;-86
2021/10/25 16:04:47;;;;;;;15.80;5.38;;;;;;;;;;5096023;28;20016;-85
2021/10/25 16:07:14;;;;;;;13.00;5.25;;;;;;;;;;5096779;28;20509;-85
2021/10/25 16:09:42;;;;;;;14.38;6.03;;;;;;;;;;5095511;28;20046;-86
2021/10/25 16:12:09;;;;;;;16.33;7.28;;;;;;;;;;5091000;28;20055;-86
2021/10/25 16:14:35;;;;;;;14.88;6.63;;;;;;;;;;5079300;28;20484;-85
2021/10/25 16:17:02;;;;;;;17.80;6.10;;;;;;;;;;5076705;28;20036;-85
2021/10/25 16:19:27;;;;;;;13.27;5.95;;;;;;;;;;5073391;28;20027;-85